Time;durP1;ratioP1;P1;durP2;ratioP2;P2;SDS_P1;SDS_P2;PMS_P1;PMS_P2;Temp;Humidity;BMP_temperature;BMP_pressure;BME280_temperature;BME280_humidity;BME280_pressure;Samples;Min_cycle;Max_cycle;Signal;HPM_P1;HPM_P2
2021/12/23 00:01:04;;;;;;;37.65;16.25;;;;;;;;;;4911906;29;20026;-78
2021/12/23 00:03:30;;;;;;;39.80;17.00;;;;;;;;;;4925935;29;20016;-81
2021/12/23 00:05:55;;;;;;;33.22;15.43;;;;;;;;;;4928668;29;20087;-85
2021/12/23 00:08:21;;;;;;;38.33;16.77;;;;;;;;;;4909122;29;20019;-83
2021/12/23 00:10:47;;;;;;;33.92;15.13;;;;;;;;;;4929492;29;20035;-79
2021/12/23 00:13:13;;;;;;;33.30;17.08;;;;;;;;;;4926816;29;20028;-83
2021/12/23 00:16:00;;;;;;;31.65;16.45;;;;;;;;;;4920079;29;20056;-83
2021/12/23 00:23:47;;;;;;;32.42;15.80;;;;;;;;;;4927080;29;20115;-83
2021/12/23 00:26:12;;;;;;;34.13;16.38;;;;;;;;;;4903523;29;20028;-85
2021/12/23 00:28:38;;;;;;;39.10;17.38;;;;;;;;;;4921772;29;20031;-80
2021/12/23 00:31:04;;;;;;;40.20;15.73;;;;;;;;;;4911743;29;20054;-81
2021/12/23 00:33:30;;;;;;;31.10;15.63;;;;;;;;;;4923263;29;20375;-83
2021/12/23 00:35:57;;;;;;;31.65;14.00;;;;;;;;;;4920240;29;20031;-82
2021/12/23 00:38:30;;;;;;;33.00;15.65;;;;;;;;;;4924334;29;20035;-77
2021/12/23 00:40:58;;;;;;;34.25;16.63;;;;;;;;;;4910816;29;20052;-81
2021/12/23 00:43:24;;;;;;;39.55;15.43;;;;;;;;;;4924696;29;20024;-84
2021/12/23 00:45:50;;;;;;;34.90;17.00;;;;;;;;;;4906551;29;20024;-82
2021/12/23 00:48:16;;;;;;;34.42;15.32;;;;;;;;;;4942047;29;20022;-85
2021/12/23 00:50:42;;;;;;;33.08;16.02;;;;;;;;;;4929185;29;20031;-84
2021/12/23 00:53:10;;;;;;;37.22;16.25;;;;;;;;;;4907082;29;20028;-80
2021/12/23 00:55:35;;;;;;;33.75;14.55;;;;;;;;;;4900887;29;20031;-85
2021/12/23 00:58:01;;;;;;;37.60;16.88;;;;;;;;;;4919852;29;20409;-84
2021/12/23 01:00:27;;;;;;;36.70;16.90;;;;;;;;;;4923689;29;20286;-85
2021/12/23 01:02:52;;;;;;;42.50;17.70;;;;;;;;;;4911901;29;20040;-79
2021/12/23 01:05:21;;;;;;;33.58;15.40;;;;;;;;;;4911846;29;20028;-82
2021/12/23 01:07:47;;;;;;;33.88;15.82;;;;;;;;;;4930868;29;20035;-85
2021/12/23 01:10:13;;;;;;;35.05;16.52;;;;;;;;;;4942719;29;20024;-86
2021/12/23 01:12:52;;;;;;;36.13;15.98;;;;;;;;;;4927884;29;20091;-80
2021/12/23 01:20:25;;;;;;;41.30;18.02;;;;;;;;;;4926884;29;20046;-83
2021/12/23 01:22:51;;;;;;;37.22;17.05;;;;;;;;;;4902988;29;20032;-84
2021/12/23 01:25:16;;;;;;;36.00;16.88;;;;;;;;;;4911590;29;20024;-84
2021/12/23 01:27:42;;;;;;;38.95;17.77;;;;;;;;;;4916440;29;20059;-82
2021/12/23 01:30:07;;;;;;;39.45;17.30;;;;;;;;;;4928968;29;20035;-85
2021/12/23 01:32:33;;;;;;;37.70;17.13;;;;;;;;;;4928864;29;20028;-81
2021/12/23 01:34:58;;;;;;;32.08;15.00;;;;;;;;;;4926235;29;20023;-84
2021/12/23 01:37:24;;;;;;;35.75;15.07;;;;;;;;;;4930443;29;20040;-85
2021/12/23 01:39:49;;;;;;;39.90;15.82;;;;;;;;;;4937302;29;20043;-80
2021/12/23 01:42:14;;;;;;;32.78;15.80;;;;;;;;;;4922747;29;20032;-82
2021/12/23 01:44:40;;;;;;;34.42;14.57;;;;;;;;;;4909691;29;20120;-86
2021/12/23 01:47:05;;;;;;;35.08;15.98;;;;;;;;;;4904780;29;20057;-77
2021/12/23 01:49:31;;;;;;;37.15;16.23;;;;;;;;;;4939885;29;20116;-81
2021/12/23 01:51:57;;;;;;;37.17;18.10;;;;;;;;;;4924053;29;20034;-85
2021/12/23 01:54:22;;;;;;;37.53;16.60;;;;;;;;;;4926960;29;20024;-85
2021/12/23 01:56:49;;;;;;;36.38;16.38;;;;;;;;;;4934552;29;20012;-81
2021/12/23 01:59:15;;;;;;;39.70;16.52;;;;;;;;;;4936551;29;20097;-83
2021/12/23 02:01:41;;;;;;;36.63;16.23;;;;;;;;;;4925976;29;20012;-84
2021/12/23 02:04:07;;;;;;;35.65;16.00;;;;;;;;;;4918961;29;20020;-86
2021/12/23 02:06:32;;;;;;;44.30;18.10;;;;;;;;;;4924442;29;20036;-83
2021/12/23 02:08:58;;;;;;;40.65;18.25;;;;;;;;;;4925747;29;20079;-81
2021/12/23 02:11:24;;;;;;;41.47;19.17;;;;;;;;;;4929636;29;20028;-85
2021/12/23 02:13:49;;;;;;;37.80;16.20;;;;;;;;;;4930598;29;20164;-84
2021/12/23 02:16:15;;;;;;;29.77;13.45;;;;;;;;;;4912490;29;20056;-86
2021/12/23 02:18:40;;;;;;;43.95;18.58;;;;;;;;;;4911492;29;20107;-80
2021/12/23 02:21:06;;;;;;;31.67;16.27;;;;;;;;;;4934339;29;20024;-86
2021/12/23 02:23:33;;;;;;;34.05;16.58;;;;;;;;;;4935462;29;20036;-86
2021/12/23 02:25:59;;;;;;;30.63;14.77;;;;;;;;;;4910346;29;20032;-84
2021/12/23 02:28:26;;;;;;;37.05;16.60;;;;;;;;;;4909381;29;20096;-84
2021/12/23 02:30:52;;;;;;;39.58;16.25;;;;;;;;;;4913251;29;20030;-82
2021/12/23 02:33:19;;;;;;;42.35;17.48;;;;;;;;;;4928973;29;20080;-81
2021/12/23 02:35:45;;;;;;;26.60;13.45;;;;;;;;;;4929984;29;20036;-85
2021/12/23 02:38:10;;;;;;;33.03;16.08;;;;;;;;;;4931588;29;20035;-83
2021/12/23 02:40:41;;;;;;;33.50;15.93;;;;;;;;;;4958147;29;20032;-83
2021/12/23 02:43:36;;;;;;;35.08;15.73;;;;;;;;;;4951413;29;20027;-85
2021/12/23 02:46:02;;;;;;;33.38;14.75;;;;;;;;;;4930316;29;20051;-84
2021/12/23 02:48:38;;;;;;;35.40;16.52;;;;;;;;;;4945382;29;20024;-85
2021/12/23 02:51:10;;;;;;;38.97;16.35;;;;;;;;;;4928398;29;20036;-85
2021/12/23 02:53:37;;;;;;;28.63;13.23;;;;;;;;;;4927634;29;20035;-85
2021/12/23 02:56:04;;;;;;;34.80;15.95;;;;;;;;;;4926034;29;20168;-85
2021/12/23 02:58:30;;;;;;;29.77;15.30;;;;;;;;;;4926068;29;20032;-85
2021/12/23 03:00:57;;;;;;;35.00;15.25;;;;;;;;;;4925230;29;20043;-85
2021/12/23 03:03:23;;;;;;;34.55;17.33;;;;;;;;;;4927670;29;20031;-83
2021/12/23 03:05:51;;;;;;;24.08;13.15;;;;;;;;;;4924837;29;20036;-86
2021/12/23 03:08:27;;;;;;;41.28;16.85;;;;;;;;;;4925555;29;20028;-86
2021/12/23 03:10:52;;;;;;;32.25;14.35;;;;;;;;;;4924762;29;20036;-84
2021/12/23 03:13:18;;;;;;;36.65;16.88;;;;;;;;;;4906759;29;20123;-83
2021/12/23 03:15:43;;;;;;;32.42;14.55;;;;;;;;;;4928705;29;20028;-85
2021/12/23 03:18:08;;;;;;;34.00;16.70;;;;;;;;;;4906266;29;20119;-85
2021/12/23 03:20:34;;;;;;;34.78;16.17;;;;;;;;;;4907901;29;20039;-83
2021/12/23 03:22:59;;;;;;;35.78;16.40;;;;;;;;;;4906526;29;20043;-85
2021/12/23 03:25:24;;;;;;;35.92;16.15;;;;;;;;;;4923477;29;20060;-84
2021/12/23 03:27:50;;;;;;;34.05;15.90;;;;;;;;;;4924454;29;20106;-83
2021/12/23 03:30:15;;;;;;;31.98;15.65;;;;;;;;;;4938206;29;20019;-84
2021/12/23 03:32:40;;;;;;;29.55;13.40;;;;;;;;;;4913970;29;20558;-83
2021/12/23 03:35:06;;;;;;;36.60;14.20;;;;;;;;;;4922822;29;20028;-86
2021/12/23 03:37:32;;;;;;;38.78;17.08;;;;;;;;;;4923186;29;20111;-86
2021/12/23 03:39:57;;;;;;;37.20;16.63;;;;;;;;;;4923065;29;20035;-83
2021/12/23 03:42:23;;;;;;;33.25;15.80;;;;;;;;;;4905958;29;20087;-86
2021/12/23 03:44:48;;;;;;;32.17;14.02;;;;;;;;;;4911253;29;20020;-86
2021/12/23 03:47:14;;;;;;;38.20;16.10;;;;;;;;;;4902653;29;20076;-82
2021/12/23 03:49:39;;;;;;;34.92;15.85;;;;;;;;;;4933095;29;20030;-81
2021/12/23 03:52:04;;;;;;;30.13;15.18;;;;;;;;;;4918613;29;20028;-83
2021/12/23 03:54:30;;;;;;;37.88;16.70;;;;;;;;;;4900877;29;20028;-83
2021/12/23 03:56:55;;;;;;;29.48;14.63;;;;;;;;;;4917994;29;20031;-80
2021/12/23 03:59:21;;;;;;;35.88;17.38;;;;;;;;;;4901397;29;20501;-81
2021/12/23 04:01:46;;;;;;;25.20;12.80;;;;;;;;;;4918686;29;20034;-82
2021/12/23 04:04:11;;;;;;;33.30;15.55;;;;;;;;;;4918630;29;20032;-82
2021/12/23 04:06:37;;;;;;;32.22;14.23;;;;;;;;;;4917218;29;20036;-82
2021/12/23 04:09:03;;;;;;;25.80;13.07;;;;;;;;;;4915370;29;20111;-81
2021/12/23 04:11:28;;;;;;;30.30;15.40;;;;;;;;;;4918368;29;20115;-82
2021/12/23 04:13:54;;;;;;;22.92;10.43;;;;;;;;;;4917651;29;20439;-82
2021/12/23 04:16:21;;;;;;;32.45;15.15;;;;;;;;;;4918969;29;20079;-83
2021/12/23 04:18:49;;;;;;;37.88;14.95;;;;;;;;;;4914097;29;20064;-81
2021/12/23 04:21:15;;;;;;;25.05;13.00;;;;;;;;;;4917923;29;20032;-82
2021/12/23 04:23:40;;;;;;;31.75;14.15;;;;;;;;;;4918479;29;20103;-81
2021/12/23 04:26:09;;;;;;;32.40;14.73;;;;;;;;;;4918707;29;20182;-82
2021/12/23 04:28:44;;;;;;;31.00;13.77;;;;;;;;;;4918705;29;20032;-82
2021/12/23 04:31:09;;;;;;;24.33;11.93;;;;;;;;;;4919660;29;20028;-82
2021/12/23 04:33:35;;;;;;;29.73;13.48;;;;;;;;;;4901185;29;20525;-82
2021/12/23 04:36:00;;;;;;;21.13;9.60;;;;;;;;;;4920563;29;20035;-83
2021/12/23 04:38:25;;;;;;;33.00;14.80;;;;;;;;;;4921463;29;20036;-82
2021/12/23 04:40:51;;;;;;;30.15;13.80;;;;;;;;;;4904564;29;20031;-82
2021/12/23 04:43:16;;;;;;;27.33;12.82;;;;;;;;;;4904285;29;20161;-82
2021/12/23 04:45:42;;;;;;;34.67;15.30;;;;;;;;;;4921562;29;20040;-82
2021/12/23 04:48:07;;;;;;;15.25;8.13;;;;;;;;;;4904005;29;20028;-83
2021/12/23 04:50:32;;;;;;;29.95;14.00;;;;;;;;;;4921546;29;20031;-82
2021/12/23 04:52:58;;;;;;;33.95;15.45;;;;;;;;;;4924765;29;20024;-82
2021/12/23 04:55:25;;;;;;;30.35;14.90;;;;;;;;;;4923366;29;20083;-82
2021/12/23 04:57:50;;;;;;;24.42;12.07;;;;;;;;;;4924306;29;20490;-82
2021/12/23 05:00:20;;;;;;;26.20;11.82;;;;;;;;;;4921170;29;20032;-82
2021/12/23 05:02:45;;;;;;;29.35;13.30;;;;;;;;;;4921943;29;20036;-82
2021/12/23 05:05:11;;;;;;;27.25;12.70;;;;;;;;;;4921927;29;20032;-82
2021/12/23 05:07:37;;;;;;;29.17;13.23;;;;;;;;;;4921874;29;20047;-82
2021/12/23 05:10:05;;;;;;;30.00;12.65;;;;;;;;;;4922065;29;20035;-82
2021/12/23 05:12:30;;;;;;;30.15;14.52;;;;;;;;;;4926908;29;20039;-82
2021/12/23 05:14:55;;;;;;;30.67;12.80;;;;;;;;;;4920934;29;20049;-81
2021/12/23 05:17:21;;;;;;;34.25;12.80;;;;;;;;;;4921084;29;20111;-82
2021/12/23 05:19:46;;;;;;;29.25;12.82;;;;;;;;;;4921111;29;20032;-82
2021/12/23 05:22:12;;;;;;;28.58;12.07;;;;;;;;;;4921200;29;20116;-82
2021/12/23 05:24:37;;;;;;;22.88;11.20;;;;;;;;;;4935170;29;20028;-82
2021/12/23 05:27:03;;;;;;;26.73;13.52;;;;;;;;;;4903272;29;20040;-81
2021/12/23 05:29:28;;;;;;;30.65;14.10;;;;;;;;;;4909388;29;20111;-82
2021/12/23 05:31:53;;;;;;;31.95;13.00;;;;;;;;;;4903661;29;20038;-80
2021/12/23 05:34:19;;;;;;;28.20;13.45;;;;;;;;;;4920024;29;20425;-82
2021/12/23 05:36:44;;;;;;;24.55;12.35;;;;;;;;;;4903680;29;20039;-81
2021/12/23 05:39:09;;;;;;;24.55;12.50;;;;;;;;;;4920756;29;20036;-83
2021/12/23 05:41:35;;;;;;;30.80;13.23;;;;;;;;;;4920371;29;20075;-81
2021/12/23 05:44:01;;;;;;;23.30;13.20;;;;;;;;;;4920594;29;20028;-82
2021/12/23 05:46:27;;;;;;;27.63;12.93;;;;;;;;;;4919602;29;20032;-82
2021/12/23 05:48:52;;;;;;;26.85;13.50;;;;;;;;;;4920151;29;20397;-82
2021/12/23 05:51:18;;;;;;;30.48;13.43;;;;;;;;;;4920344;29;20032;-81
2021/12/23 05:53:44;;;;;;;25.25;12.15;;;;;;;;;;4924748;29;20510;-81
2021/12/23 05:56:10;;;;;;;26.45;12.52;;;;;;;;;;4920797;29;20032;-80
2021/12/23 05:58:36;;;;;;;33.35;13.82;;;;;;;;;;4920972;29;20497;-81
2021/12/23 06:01:02;;;;;;;27.77;13.18;;;;;;;;;;4923324;29;20031;-81
2021/12/23 06:03:27;;;;;;;29.35;13.02;;;;;;;;;;4924364;29;20047;-83
2021/12/23 06:05:53;;;;;;;32.13;14.43;;;;;;;;;;4907550;29;20040;-82
2021/12/23 06:08:18;;;;;;;27.33;12.27;;;;;;;;;;4927897;29;20606;-83
2021/12/23 06:10:43;;;;;;;28.92;12.88;;;;;;;;;;4937929;29;20032;-82
2021/12/23 06:13:09;;;;;;;27.90;12.35;;;;;;;;;;4934167;29;20039;-81
2021/12/23 06:15:34;;;;;;;28.83;12.50;;;;;;;;;;4930924;29;20056;-82
2021/12/23 06:18:00;;;;;;;25.13;13.95;;;;;;;;;;4924282;29;20032;-83
2021/12/23 06:20:26;;;;;;;29.50;13.48;;;;;;;;;;4907419;29;20075;-82
2021/12/23 06:22:51;;;;;;;25.27;12.40;;;;;;;;;;4937616;29;20098;-83
2021/12/23 06:25:17;;;;;;;26.77;13.38;;;;;;;;;;4931464;29;20406;-82
2021/12/23 06:27:42;;;;;;;29.65;13.68;;;;;;;;;;4932478;29;20055;-83
2021/12/23 06:30:18;;;;;;;30.15;13.13;;;;;;;;;;4931098;29;20024;-81
2021/12/23 06:32:46;;;;;;;26.70;12.82;;;;;;;;;;4928720;29;20107;-82
2021/12/23 06:35:12;;;;;;;28.33;13.07;;;;;;;;;;4925186;29;20031;-82
2021/12/23 06:37:38;;;;;;;26.95;12.98;;;;;;;;;;4926038;29;20032;-82
2021/12/23 06:40:04;;;;;;;28.80;12.90;;;;;;;;;;4930620;29;20080;-82
2021/12/23 06:42:30;;;;;;;31.20;13.23;;;;;;;;;;4929805;29;20035;-82
2021/12/23 06:44:55;;;;;;;26.83;13.30;;;;;;;;;;4928566;29;20439;-83
2021/12/23 06:47:20;;;;;;;33.60;13.95;;;;;;;;;;4924026;29;20036;-82
2021/12/23 06:49:47;;;;;;;33.63;14.40;;;;;;;;;;4923642;29;20027;-81
2021/12/23 06:52:13;;;;;;;30.98;13.45;;;;;;;;;;4906972;29;20175;-81
2021/12/23 06:54:42;;;;;;;27.88;13.55;;;;;;;;;;4929245;29;20060;-81
2021/12/23 06:57:08;;;;;;;27.75;14.05;;;;;;;;;;4927959;29;20225;-80
2021/12/23 06:59:33;;;;;;;32.95;13.13;;;;;;;;;;4933440;29;20024;-82
2021/12/23 07:01:59;;;;;;;32.65;14.05;;;;;;;;;;4944902;29;20027;-81
2021/12/23 07:04:29;;;;;;;28.35;13.38;;;;;;;;;;4929506;29;20032;-83
2021/12/23 07:07:08;;;;;;;33.58;15.60;;;;;;;;;;4930741;29;20028;-82
2021/12/23 07:09:33;;;;;;;30.42;13.38;;;;;;;;;;4916534;29;20031;-82
2021/12/23 07:11:59;;;;;;;28.60;13.60;;;;;;;;;;4933504;29;20040;-82
2021/12/23 07:14:24;;;;;;;30.60;14.02;;;;;;;;;;4927872;29;20035;-82
2021/12/23 07:16:49;;;;;;;30.27;13.43;;;;;;;;;;4928442;29;20032;-81
2021/12/23 07:19:15;;;;;;;24.65;11.77;;;;;;;;;;4925649;29;20031;-82
2021/12/23 07:21:40;;;;;;;31.20;12.35;;;;;;;;;;4926108;29;20035;-79
2021/12/23 07:24:06;;;;;;;29.70;13.20;;;;;;;;;;4915787;29;20490;-81
2021/12/23 07:26:32;;;;;;;28.85;13.93;;;;;;;;;;4928739;29;20482;-82
2021/12/23 07:28:58;;;;;;;29.73;13.63;;;;;;;;;;4935878;29;20039;-82
2021/12/23 07:31:23;;;;;;;29.08;13.65;;;;;;;;;;4922789;29;20039;-80
2021/12/23 07:33:48;;;;;;;25.52;12.52;;;;;;;;;;4931915;29;20043;-81
2021/12/23 07:36:17;;;;;;;30.80;13.43;;;;;;;;;;4909771;29;20027;-82
2021/12/23 07:38:43;;;;;;;26.23;12.60;;;;;;;;;;4942164;29;20040;-83
2021/12/23 07:41:08;;;;;;;26.58;12.77;;;;;;;;;;4937207;29;20031;-82
2021/12/23 07:46:01;;;;;;;29.90;13.55;;;;;;;;;;4929886;29;20104;-81
2021/12/23 07:48:26;;;;;;;30.48;13.70;;;;;;;;;;4921571;29;20039;-82
2021/12/23 07:50:53;;;;;;;31.55;13.75;;;;;;;;;;4921629;29;20435;-81
2021/12/23 07:53:19;;;;;;;35.10;11.93;;;;;;;;;;4925185;29;20066;-82
2021/12/23 07:55:44;;;;;;;29.77;13.98;;;;;;;;;;4929758;29;20024;-81
2021/12/23 07:58:10;;;;;;;25.27;13.13;;;;;;;;;;4935130;29;20028;-81
2021/12/23 08:00:35;;;;;;;28.73;13.70;;;;;;;;;;4915881;29;20122;-81
2021/12/23 08:03:01;;;;;;;29.27;13.48;;;;;;;;;;4905837;29;20032;-82
2021/12/23 08:05:26;;;;;;;28.75;12.90;;;;;;;;;;4921141;29;20028;-84
2021/12/23 08:07:54;;;;;;;26.90;11.73;;;;;;;;;;4922246;29;20492;-81
2021/12/23 08:10:19;;;;;;;30.52;14.20;;;;;;;;;;4905195;29;20035;-82
2021/12/23 08:12:45;;;;;;;35.25;13.98;;;;;;;;;;4917534;29;20056;-82
2021/12/23 08:15:10;;;;;;;28.67;13.15;;;;;;;;;;4928005;29;20099;-81
2021/12/23 08:17:36;;;;;;;32.00;12.75;;;;;;;;;;4925226;29;20071;-80
2021/12/23 08:20:03;;;;;;;27.30;13.57;;;;;;;;;;4929360;29;20098;-81
2021/12/23 08:22:29;;;;;;;30.08;13.73;;;;;;;;;;4925517;29;20031;-82
2021/12/23 08:24:54;;;;;;;32.83;13.88;;;;;;;;;;4923639;29;20036;-82
2021/12/23 08:27:21;;;;;;;27.38;13.75;;;;;;;;;;4924508;29;20032;-81
2021/12/23 08:29:47;;;;;;;27.08;13.43;;;;;;;;;;4936809;29;20079;-81
2021/12/23 08:32:12;;;;;;;34.22;13.50;;;;;;;;;;4934155;29;20032;-81
2021/12/23 08:34:38;;;;;;;28.35;13.73;;;;;;;;;;4925943;29;20045;-81
2021/12/23 08:37:06;;;;;;;33.08;15.43;;;;;;;;;;4925235;29;20051;-82
2021/12/23 08:39:32;;;;;;;33.70;14.27;;;;;;;;;;4925644;29;20031;-80
2021/12/23 08:41:58;;;;;;;30.77;13.77;;;;;;;;;;4922878;29;20032;-83
2021/12/23 08:44:23;;;;;;;30.65;14.20;;;;;;;;;;4906290;29;20034;-82
2021/12/23 08:46:48;;;;;;;29.63;14.20;;;;;;;;;;4922549;29;20055;-83
2021/12/23 08:49:17;;;;;;;29.42;14.68;;;;;;;;;;4919224;29;20467;-83
2021/12/23 08:51:43;;;;;;;29.75;12.82;;;;;;;;;;4920988;29;20051;-82
2021/12/23 08:54:08;;;;;;;29.20;13.73;;;;;;;;;;4923226;29;20035;-82
2021/12/23 08:56:33;;;;;;;28.63;13.52;;;;;;;;;;4928218;29;20060;-82
2021/12/23 08:58:59;;;;;;;34.75;14.88;;;;;;;;;;4927225;29;20032;-82
2021/12/23 09:01:24;;;;;;;37.10;15.25;;;;;;;;;;4924469;29;20040;-81
2021/12/23 09:03:50;;;;;;;31.60;13.93;;;;;;;;;;4923328;29;20424;-81
2021/12/23 09:06:15;;;;;;;28.42;13.90;;;;;;;;;;4923846;29;20119;-82
2021/12/23 09:08:41;;;;;;;31.00;14.80;;;;;;;;;;4937281;29;20078;-82
2021/12/23 09:11:06;;;;;;;27.63;13.82;;;;;;;;;;4925594;29;20028;-81
2021/12/23 09:13:32;;;;;;;31.63;14.55;;;;;;;;;;4924965;29;20060;-81
2021/12/23 09:15:58;;;;;;;31.75;13.60;;;;;;;;;;4907204;29;20053;-82
2021/12/23 09:18:25;;;;;;;29.15;13.23;;;;;;;;;;4904842;29;20414;-82
2021/12/23 09:20:52;;;;;;;32.95;14.02;;;;;;;;;;4924350;29;20115;-82
2021/12/23 09:23:18;;;;;;;30.30;14.63;;;;;;;;;;4927702;29;20020;-83
2021/12/23 09:25:46;;;;;;;32.10;14.05;;;;;;;;;;4926821;29;20058;-83
2021/12/23 09:33:23;;;;;;;28.58;13.85;;;;;;;;;;4924005;29;20060;-84
2021/12/23 09:35:49;;;;;;;29.65;13.98;;;;;;;;;;4931529;29;20035;-81
2021/12/23 09:38:16;;;;;;;23.73;12.50;;;;;;;;;;4928022;29;20028;-82
2021/12/23 09:40:43;;;;;;;31.95;14.68;;;;;;;;;;4925021;29;20043;-82
2021/12/23 09:43:12;;;;;;;26.17;12.70;;;;;;;;;;4923694;29;20047;-83
2021/12/23 09:45:41;;;;;;;29.60;13.45;;;;;;;;;;4924420;29;20083;-83
2021/12/23 09:48:07;;;;;;;28.98;12.85;;;;;;;;;;4975641;23;20067;-85
2021/12/23 09:50:37;;;;;;;30.55;14.98;;;;;;;;;;4988829;28;20117;-85
2021/12/23 09:53:04;;;;;;;31.05;14.63;;;;;;;;;;4974277;28;20045;-84
2021/12/23 09:55:33;;;;;;;35.90;15.55;;;;;;;;;;4991972;28;20026;-85
2021/12/23 09:57:59;;;;;;;26.30;12.25;;;;;;;;;;4981791;28;20113;-84
2021/12/23 10:00:31;;;;;;;28.70;14.98;;;;;;;;;;4985110;28;20022;-84
2021/12/23 10:02:58;;;;;;;34.25;13.70;;;;;;;;;;4958763;28;20034;-83
2021/12/23 10:05:26;;;;;;;29.17;13.32;;;;;;;;;;4978428;28;20031;-86
2021/12/23 10:07:54;;;;;;;26.52;12.43;;;;;;;;;;4975415;28;20030;-83
2021/12/23 10:30:21;;;;;;;30.95;13.75;;;;;;;;;;4968166;28;20046;-85
2021/12/23 10:41:24;;;;;;;33.08;14.50;;;;;;;;;;4977181;28;20062;-85
2021/12/23 10:44:41;;;;;;;30.33;14.40;;;;;;;;;;4957017;28;20058;-87
2021/12/23 10:48:07;;;;;;;26.17;13.18;;;;;;;;;;4915552;28;20031;-85
2021/12/23 10:50:45;;;;;;;30.00;13.65;;;;;;;;;;4960662;28;20436;-83
2021/12/23 10:53:34;;;;;;;29.73;14.88;;;;;;;;;;4959188;28;20545;-84
2021/12/23 10:59:12;;;;;;;25.60;12.35;;;;;;;;;;4984499;28;20053;-86
2021/12/23 11:02:14;;;;;;;27.63;12.35;;;;;;;;;;4977941;28;20109;-86
2021/12/23 11:05:10;;;;;;;23.88;12.52;;;;;;;;;;4966411;28;20544;-84
2021/12/23 11:07:44;;;;;;;26.08;13.18;;;;;;;;;;4962952;28;20024;-86
2021/12/23 11:10:26;;;;;;;34.08;14.88;;;;;;;;;;4961120;28;20019;-85
2021/12/23 11:40:59;;;;;;;28.80;13.05;;;;;;;;;;4975668;28;20034;-85
2021/12/23 11:43:30;;;;;;;30.65;13.75;;;;;;;;;;4952677;28;20409;-85
2021/12/23 11:45:56;;;;;;;25.33;12.75;;;;;;;;;;4976481;28;20038;-82
2021/12/23 11:48:22;;;;;;;27.95;12.93;;;;;;;;;;4961078;28;20022;-84
2021/12/23 11:50:55;;;;;;;29.30;13.88;;;;;;;;;;4952741;28;20031;-83
2021/12/23 11:56:53;;;;;;;27.88;12.15;;;;;;;;;;4955316;28;20109;-83
2021/12/23 11:59:19;;;;;;;28.75;12.38;;;;;;;;;;4969705;28;20121;-83
2021/12/23 12:05:16;;;;;;;23.00;12.00;;;;;;;;;;4885428;29;20040;-85
2021/12/23 12:10:22;;;;;;;25.27;12.20;;;;;;;;;;4972756;28;20449;-83
2021/12/23 12:13:07;;;;;;;30.40;13.77;;;;;;;;;;4959955;28;20038;-84
2021/12/23 12:15:48;;;;;;;29.92;14.55;;;;;;;;;;4960497;28;20044;-85
2021/12/23 12:18:22;;;;;;;33.78;14.23;;;;;;;;;;4998768;28;20057;-83
2021/12/23 12:21:02;;;;;;;29.08;12.90;;;;;;;;;;4978260;28;20070;-83
2021/12/23 12:23:32;;;;;;;42.03;15.05;;;;;;;;;;5031992;23;20045;-86
2021/12/23 12:26:25;;;;;;;28.13;14.32;;;;;;;;;;5025748;28;20484;-84
2021/12/23 12:28:51;;;;;;;27.17;13.90;;;;;;;;;;5002981;28;20046;-84
2021/12/23 12:31:22;;;;;;;28.17;13.88;;;;;;;;;;5013357;28;20042;-84
2021/12/23 12:33:57;;;;;;;29.92;13.85;;;;;;;;;;4988775;28;20031;-87
2021/12/23 12:36:24;;;;;;;25.95;12.98;;;;;;;;;;4990370;28;20025;-86
2021/12/23 12:39:03;;;;;;;31.13;14.02;;;;;;;;;;5004129;28;20511;-87
2021/12/23 12:41:34;;;;;;;43.22;14.38;;;;;;;;;;4978444;28;20382;-86
2021/12/23 12:44:18;;;;;;;26.15;13.27;;;;;;;;;;4979856;28;20026;-85
2021/12/23 12:47:11;;;;;;;28.75;14.07;;;;;;;;;;4997544;28;20037;-86
2021/12/23 12:49:49;;;;;;;26.70;13.43;;;;;;;;;;5007517;28;20025;-86
2021/12/23 12:52:29;;;;;;;36.53;15.13;;;;;;;;;;4987592;28;20020;-89
2021/12/23 12:55:03;;;;;;;28.65;11.95;;;;;;;;;;4986620;28;20018;-86
2021/12/23 12:57:39;;;;;;;30.77;14.90;;;;;;;;;;4983559;28;20026;-87
2021/12/23 13:00:15;;;;;;;30.15;14.13;;;;;;;;;;5000033;28;20600;-87
2021/12/23 13:02:41;;;;;;;29.58;13.90;;;;;;;;;;4981905;28;20470;-86
2021/12/23 13:05:09;;;;;;;32.13;14.00;;;;;;;;;;4968024;28;20030;-87
2021/12/23 13:07:40;;;;;;;34.30;14.23;;;;;;;;;;4996719;28;20033;-87
2021/12/23 13:10:17;;;;;;;31.55;14.57;;;;;;;;;;5001747;28;20033;-87
2021/12/23 13:12:57;;;;;;;32.45;14.02;;;;;;;;;;5001999;28;20027;-88
2021/12/23 13:15:28;;;;;;;22.77;13.13;;;;;;;;;;5007569;28;20022;-85
2021/12/23 13:18:18;;;;;;;29.75;14.25;;;;;;;;;;4983744;28;20038;-87
2021/12/23 13:20:54;;;;;;;38.42;16.33;;;;;;;;;;4984484;28;20045;-90
2021/12/23 13:23:36;;;;;;;29.40;14.35;;;;;;;;;;4997294;28;20030;-86
2021/12/23 13:26:18;;;;;;;43.90;15.80;;;;;;;;;;4984240;28;20085;-87
2021/12/23 13:28:54;;;;;;;31.40;14.73;;;;;;;;;;4984389;28;20459;-88
2021/12/23 13:31:22;;;;;;;23.65;12.38;;;;;;;;;;5001382;28;20157;-88
2021/12/23 13:33:54;;;;;;;28.05;13.48;;;;;;;;;;5000891;28;20112;-88
2021/12/23 13:36:25;;;;;;;25.30;13.63;;;;;;;;;;4984004;28;20022;-88
2021/12/23 13:38:56;;;;;;;21.05;11.65;;;;;;;;;;5005985;28;20479;-86
2021/12/23 13:41:36;;;;;;;28.50;12.43;;;;;;;;;;5005786;28;20050;-88
2021/12/23 13:44:13;;;;;;;28.30;11.88;;;;;;;;;;4990038;28;20030;-88
2021/12/23 13:46:40;;;;;;;22.38;12.15;;;;;;;;;;4982715;28;20057;-87
2021/12/23 13:49:06;;;;;;;31.52;12.23;;;;;;;;;;4999431;28;20023;-83
2021/12/23 13:51:35;;;;;;;27.67;13.30;;;;;;;;;;4993660;28;20504;-85
2021/12/23 13:54:04;;;;;;;23.65;12.30;;;;;;;;;;4995619;28;20617;-83
2021/12/23 13:56:31;;;;;;;26.75;12.75;;;;;;;;;;4997315;28;20019;-87
2021/12/23 13:59:09;;;;;;;31.48;13.20;;;;;;;;;;4983047;28;20034;-85
2021/12/23 14:01:49;;;;;;;29.35;12.60;;;;;;;;;;4982410;28;20080;-83
2021/12/23 14:04:44;;;;;;;29.92;13.07;;;;;;;;;;5003108;28;20026;-83
2021/12/23 14:07:14;;;;;;;23.70;11.55;;;;;;;;;;4999028;28;20132;-84
2021/12/23 14:09:43;;;;;;;24.95;12.20;;;;;;;;;;5009424;28;20174;-83
2021/12/23 14:12:12;;;;;;;22.15;11.82;;;;;;;;;;4998269;28;20033;-84
2021/12/23 14:14:54;;;;;;;23.63;11.45;;;;;;;;;;4992470;28;20029;-85
2021/12/23 14:17:29;;;;;;;22.75;11.60;;;;;;;;;;5011143;28;20026;-84
2021/12/23 14:23:12;;;;;;;26.25;12.55;;;;;;;;;;5000891;28;20550;-84
2021/12/23 14:25:47;;;;;;;28.77;11.48;;;;;;;;;;4995955;28;20053;-84
2021/12/23 14:28:16;;;;;;;27.75;12.60;;;;;;;;;;4981358;28;20026;-86
2021/12/23 14:31:16;;;;;;;30.20;11.98;;;;;;;;;;4999058;28;20035;-84
2021/12/23 14:33:46;;;;;;;24.67;12.07;;;;;;;;;;4976729;28;20042;-84
2021/12/23 14:36:34;;;;;;;22.73;10.75;;;;;;;;;;4999505;28;20037;-84
2021/12/23 14:39:01;;;;;;;32.97;12.82;;;;;;;;;;4997499;28;20417;-84
2021/12/23 14:41:42;;;;;;;23.38;12.27;;;;;;;;;;4995430;28;20452;-84
2021/12/23 14:44:10;;;;;;;30.05;12.55;;;;;;;;;;4997352;28;20383;-84
2021/12/23 14:46:41;;;;;;;20.75;11.13;;;;;;;;;;4981339;28;20026;-84
2021/12/23 14:49:24;;;;;;;26.05;12.98;;;;;;;;;;4981118;28;20068;-84
2021/12/23 14:51:50;;;;;;;22.73;11.48;;;;;;;;;;4992483;28;20046;-84
2021/12/23 14:54:21;;;;;;;35.38;13.35;;;;;;;;;;4984650;28;20030;-84
2021/12/23 14:57:03;;;;;;;27.17;13.98;;;;;;;;;;4997806;28;20499;-84
2021/12/23 14:59:28;;;;;;;;;;;;;;;;;;4974199;28;20038;-84
2021/12/23 15:02:08;;;;;;;24.77;12.15;;;;;;;;;;5002030;28;19910;-83
2021/12/23 15:04:33;;;;;;;27.08;12.65;;;;;;;;;;4997137;28;20030;-83
2021/12/23 15:07:11;;;;;;;29.02;13.18;;;;;;;;;;4981572;28;20035;-86
2021/12/23 15:09:39;;;;;;;26.40;11.55;;;;;;;;;;4981119;28;20022;-86
2021/12/23 15:12:17;;;;;;;22.95;12.63;;;;;;;;;;4998146;28;20026;-86
2021/12/23 15:14:53;;;;;;;28.10;12.35;;;;;;;;;;4999097;28;20026;-84
2021/12/23 15:17:29;;;;;;;22.10;11.40;;;;;;;;;;4972162;28;20412;-84
2021/12/23 15:19:56;;;;;;;25.45;12.15;;;;;;;;;;4981771;28;20076;-84
2021/12/23 15:22:24;;;;;;;32.58;13.20;;;;;;;;;;5010445;28;20041;-81
2021/12/23 15:25:05;;;;;;;19.65;11.35;;;;;;;;;;4996035;28;20044;-83
2021/12/23 15:27:32;;;;;;;32.20;12.93;;;;;;;;;;4990793;28;20382;-82
2021/12/23 15:30:03;;;;;;;24.42;11.52;;;;;;;;;;4977252;28;20029;-83
2021/12/23 15:32:31;;;;;;;22.70;10.40;;;;;;;;;;4995793;28;20067;-81
2021/12/23 15:35:05;;;;;;;26.52;12.77;;;;;;;;;;4994129;28;20109;-80
2021/12/23 15:37:36;;;;;;;28.27;13.18;;;;;;;;;;4987784;28;20129;-81
2021/12/23 15:40:04;;;;;;;29.95;13.25;;;;;;;;;;4970496;28;20038;-81
2021/12/23 15:42:30;;;;;;;31.05;13.57;;;;;;;;;;4995783;28;20021;-83
2021/12/23 15:44:55;;;;;;;22.80;12.77;;;;;;;;;;4996236;28;20670;-82
2021/12/23 15:47:23;;;;;;;22.75;11.70;;;;;;;;;;4997907;28;20113;-82
2021/12/23 15:49:50;;;;;;;23.05;12.82;;;;;;;;;;4981984;28;20026;-85
2021/12/23 15:52:16;;;;;;;28.42;13.65;;;;;;;;;;4986278;28;20038;-83
2021/12/23 15:54:43;;;;;;;27.80;13.63;;;;;;;;;;4993578;28;20026;-84
2021/12/23 15:57:10;;;;;;;22.70;12.55;;;;;;;;;;5016876;28;20032;-81
2021/12/23 15:59:36;;;;;;;26.75;13.70;;;;;;;;;;4981448;28;20061;-85